Time;durP1;ratioP1;P1;durP2;ratioP2;P2;SDS_P1;SDS_P2;PMS_P1;PMS_P2;Temp;Humidity;BMP_temperature;BMP_pressure;BME280_temperature;BME280_humidity;BME280_pressure;Samples;Min_cycle;Max_cycle;Signal;HPM_P1;HPM_P2
2021/12/07 00:00:45;;;;;;;0.33;0.33;;;2.50;99.90;;;;;;4976787;28;20268;-73
2021/12/07 00:03:10;;;;;;;0.20;0.20;;;2.50;99.90;;;;;;4994612;28;20553;-73
2021/12/07 00:05:36;;;;;;;0.17;0.17;;;2.50;99.90;;;;;;4994412;28;20182;-72
2021/12/07 00:08:02;;;;;;;0.17;0.17;;;2.60;99.90;;;;;;4994280;28;20179;-72
2021/12/07 00:10:28;;;;;;;0.10;0.10;;;2.60;99.90;;;;;;4994034;28;20212;-73
2021/12/07 00:12:54;;;;;;;0.30;0.30;;;2.70;99.90;;;;;;4994081;28;20175;-73
2021/12/07 00:15:23;;;;;;;0.13;0.13;;;2.60;99.90;;;;;;4994030;28;20191;-73
2021/12/07 00:17:48;;;;;;;0.00;0.00;;;2.60;99.90;;;;;;4994187;28;20605;-73
2021/12/07 00:20:17;;;;;;;0.30;0.30;;;2.50;99.90;;;;;;4994151;28;20199;-73
2021/12/07 00:22:46;;;;;;;1.30;1.13;;;2.40;99.90;;;;;;4999327;23;20296;-71
2021/12/07 00:25:13;;;;;;;0.10;0.10;;;2.30;99.90;;;;;;5018187;28;20218;-71
2021/12/07 00:27:38;;;;;;;0.00;0.00;;;2.20;99.90;;;;;;5011811;28;20553;-71
2021/12/07 00:30:07;;;;;;;0.20;0.20;;;2.20;99.90;;;;;;5013724;28;20266;-71
2021/12/07 00:32:37;;;;;;;0.00;0.00;;;2.20;99.90;;;;;;5010394;28;20622;-71
2021/12/07 00:37:50;;;;;;;0.00;0.00;;;2.30;99.90;;;;;;5013504;28;20186;-71
2021/12/07 00:40:18;;;;;;;0.57;0.57;;;2.30;99.90;;;;;;5013778;28;20181;-71
2021/12/07 00:42:45;;;;;;;3.63;1.13;;;2.40;99.90;;;;;;5012478;28;20564;-72
2021/12/07 00:45:12;;;;;;;0.00;0.00;;;2.40;99.90;;;;;;4994221;28;20179;-72
2021/12/07 00:47:37;;;;;;;0.13;0.13;;;2.50;99.90;;;;;;4993535;28;20573;-71
2021/12/07 00:50:05;;;;;;;0.30;0.30;;;2.50;99.90;;;;;;4993785;28;20172;-72
2021/12/07 00:52:31;;;;;;;1.20;0.33;;;2.60;99.90;;;;;;4994091;28;20274;-71
2021/12/07 00:54:57;;;;;;;0.70;0.70;;;2.70;99.90;;;;;;4992537;28;20171;-71
2021/12/07 00:57:25;;;;;;;1.30;1.23;;;2.70;99.90;;;;;;4993072;28;20653;-71
2021/12/07 00:59:51;;;;;;;0.10;0.10;;;2.80;99.90;;;;;;4976509;28;20276;-71
2021/12/07 01:02:16;;;;;;;0.20;0.20;;;2.90;99.90;;;;;;4992835;28;20422;-70
2021/12/07 01:04:51;;;;;;;2.17;1.23;;;3.00;99.90;;;;;;5005469;28;20180;-71
2021/12/07 01:07:35;;;;;;;1.20;1.20;;;3.10;99.90;;;;;;4975798;28;20262;-70
2021/12/07 01:26:25;;;;;;;4.03;1.30;;;3.60;99.90;;;;;;4992483;28;20242;-70
2021/12/07 01:28:51;;;;;;;1.43;1.43;;;3.60;99.90;;;;;;4993148;28;20706;-70
2021/12/07 01:31:24;;;;;;;0.77;0.77;;;3.70;99.90;;;;;;4993219;28;20300;-70
2021/12/07 01:44:39;;;;;;;2.37;2.27;;;3.80;99.90;;;;;;4999058;28;20189;-71
2021/12/07 01:59:47;;;;;;;0.30;0.30;;;3.90;99.90;;;;;;4992719;28;20190;-71
2021/12/07 02:02:15;;;;;;;1.13;0.60;;;3.90;99.90;;;;;;4992831;28;20214;-71
2021/12/07 02:04:42;;;;;;;0.13;0.13;;;4.00;99.90;;;;;;4975889;28;20242;-71
2021/12/07 02:07:08;;;;;;;0.70;0.70;;;4.00;99.90;;;;;;4976373;28;20233;-71
2021/12/07 02:09:36;;;;;;;1.30;0.77;;;3.90;99.90;;;;;;5012267;28;20181;-72
2021/12/07 02:12:04;;;;;;;0.53;0.50;;;4.00;99.90;;;;;;5011742;28;20624;-72
2021/12/07 02:14:30;;;;;;;0.10;0.10;;;4.00;99.90;;;;;;5012219;28;20209;-71
2021/12/07 02:16:59;;;;;;;0.57;0.57;;;4.00;99.90;;;;;;5011807;28;20575;-71
2021/12/07 02:19:25;;;;;;;0.43;0.33;;;4.00;99.90;;;;;;4994503;28;20199;-71
2021/12/07 02:21:52;;;;;;;0.47;0.47;;;4.00;99.90;;;;;;5011623;28;20219;-71
2021/12/07 02:24:18;;;;;;;1.40;1.30;;;4.00;99.90;;;;;;5011943;28;20266;-71
2021/12/07 02:26:44;;;;;;;1.53;0.50;;;4.00;99.90;;;;;;5011431;28;20177;-71
2021/12/07 02:29:10;;;;;;;1.67;1.57;;;4.10;99.90;;;;;;5011842;28;20177;-71
2021/12/07 02:31:36;;;;;;;2.20;2.10;;;4.10;99.90;;;;;;5011721;28;20181;-71
2021/12/07 02:34:03;;;;;;;1.97;1.80;;;4.10;99.90;;;;;;4993829;28;20609;-71
2021/12/07 02:36:29;;;;;;;2.40;2.20;;;4.10;99.90;;;;;;5011237;28;20200;-71
2021/12/07 02:38:55;;;;;;;1.47;1.47;;;4.20;99.90;;;;;;4993490;28;20651;-71
2021/12/07 02:41:21;;;;;;;1.80;0.83;;;4.20;99.90;;;;;;5011455;28;20224;-70
2021/12/07 02:43:47;;;;;;;1.17;0.70;;;4.20;99.90;;;;;;5002164;28;20193;-71
2021/12/07 02:46:12;;;;;;;1.60;1.50;;;4.30;99.90;;;;;;4991701;28;20179;-71
2021/12/07 02:48:38;;;;;;;2.30;1.03;;;4.30;99.90;;;;;;4991902;28;20554;-71
2021/12/07 02:51:04;;;;;;;0.43;0.30;;;4.30;99.90;;;;;;4991812;28;20955;-71
2021/12/07 02:53:32;;;;;;;1.37;1.37;;;4.40;99.90;;;;;;4991814;28;20251;-71
2021/12/07 02:56:00;;;;;;;0.83;0.83;;;4.40;99.90;;;;;;4991545;28;20208;-71
2021/12/07 02:58:27;;;;;;;1.30;1.30;;;4.50;99.90;;;;;;4991985;28;20182;-70
2021/12/07 03:01:02;;;;;;;1.63;1.50;;;4.40;99.90;;;;;;4991745;28;20628;-71
2021/12/07 03:03:30;;;;;;;1.40;1.40;;;4.40;99.90;;;;;;4991865;28;20201;-71
2021/12/07 03:06:19;;;;;;;0.63;0.63;;;4.40;99.90;;;;;;4991676;28;20267;-70
2021/12/07 03:09:20;;;;;;;1.03;1.00;;;4.40;99.90;;;;;;4974138;28;20182;-71
2021/12/07 03:28:06;;;;;;;4.27;3.90;;;4.40;99.90;;;;;;4991425;28;20758;-71
2021/12/07 03:30:32;;;;;;;1.67;1.47;;;4.30;99.90;;;;;;4991648;28;20237;-71
2021/12/07 03:32:59;;;;;;;5.63;2.67;;;4.30;99.90;;;;;;4991561;28;20202;-71
2021/12/07 03:35:26;;;;;;;1.50;1.43;;;4.30;99.90;;;;;;4998374;28;20161;-71
2021/12/07 03:37:52;;;;;;;0.53;0.53;;;4.30;99.90;;;;;;5010753;28;20185;-70
2021/12/07 03:40:18;;;;;;;0.73;0.73;;;4.30;99.90;;;;;;5003722;28;20559;-71
2021/12/07 03:42:44;;;;;;;0.87;0.87;;;4.30;99.90;;;;;;4988784;28;20216;-71
2021/12/07 03:45:10;;;;;;;1.83;1.70;;;4.30;99.90;;;;;;4991468;28;20186;-71
2021/12/07 03:47:36;;;;;;;1.93;1.83;;;4.30;99.90;;;;;;4991681;28;20181;-70
2021/12/07 03:50:04;;;;;;;0.20;0.20;;;4.30;99.90;;;;;;4994982;28;20186;-71
2021/12/07 03:52:29;;;;;;;0.70;0.70;;;4.30;99.90;;;;;;4994898;28;20182;-71
2021/12/07 03:54:55;;;;;;;0.87;0.87;;;4.30;99.90;;;;;;4995005;28;20210;-70
2021/12/07 03:57:20;;;;;;;0.50;0.50;;;4.30;99.90;;;;;;4994267;28;20714;-70
2021/12/07 03:59:46;;;;;;;1.13;1.13;;;4.20;99.90;;;;;;4994859;28;20539;-70
2021/12/07 04:02:11;;;;;;;0.70;0.70;;;4.20;99.90;;;;;;4994427;28;20209;-70
2021/12/07 04:04:38;;;;;;;0.27;0.27;;;4.20;99.90;;;;;;4994800;28;20248;-70
2021/12/07 04:07:04;;;;;;;0.50;0.50;;;4.20;99.90;;;;;;4994571;28;20528;-70
2021/12/07 04:09:31;;;;;;;0.83;0.83;;;4.20;99.90;;;;;;4994967;28;20572;-70
2021/12/07 04:11:56;;;;;;;0.77;0.77;;;4.20;99.90;;;;;;4994327;28;20197;-70
2021/12/07 04:14:22;;;;;;;0.30;0.30;;;4.20;99.90;;;;;;4994669;28;20205;-70
2021/12/07 04:16:48;;;;;;;2.40;2.23;;;4.20;99.90;;;;;;4993729;28;20191;-70
2021/12/07 04:19:13;;;;;;;0.33;0.33;;;4.20;99.90;;;;;;4976974;28;20268;-70
2021/12/07 04:21:39;;;;;;;0.47;0.47;;;4.30;99.90;;;;;;4976673;28;20205;-70
2021/12/07 04:24:04;;;;;;;0.20;0.20;;;4.20;99.90;;;;;;4994148;28;20321;-71
2021/12/07 04:26:31;;;;;;;2.17;1.67;;;4.20;99.90;;;;;;4993837;28;20736;-71
2021/12/07 04:28:57;;;;;;;0.53;0.50;;;4.20;99.90;;;;;;4994026;28;20722;-70
2021/12/07 04:31:23;;;;;;;1.37;0.80;;;4.20;99.90;;;;;;4994135;28;20194;-70
2021/12/07 04:33:49;;;;;;;0.47;0.47;;;4.20;99.90;;;;;;4994404;28;20287;-70
2021/12/07 04:36:14;;;;;;;0.10;0.10;;;4.20;99.90;;;;;;5007718;28;20201;-70
2021/12/07 04:38:40;;;;;;;1.20;1.20;;;4.20;99.90;;;;;;5012852;28;20196;-70
2021/12/07 04:41:07;;;;;;;1.30;1.23;;;4.20;99.90;;;;;;5013495;28;20206;-71
2021/12/07 04:43:33;;;;;;;0.73;0.73;;;4.20;99.90;;;;;;5009464;28;20199;-71
2021/12/07 04:46:16;;;;;;;1.80;1.70;;;4.20;99.90;;;;;;4994686;28;20233;-71
2021/12/07 04:59:39;;;;;;;0.47;0.47;;;3.90;99.90;;;;;;4992270;28;20185;-71
2021/12/07 05:02:05;;;;;;;2.80;1.23;;;4.00;99.90;;;;;;4993422;28;20229;-70
2021/12/07 05:04:33;;;;;;;1.23;1.23;;;4.00;99.90;;;;;;4993352;28;20211;-70
2021/12/07 05:07:08;;;;;;;2.83;2.10;;;4.00;99.90;;;;;;4993219;28;20179;-70
2021/12/07 05:14:31;;;;;;;0.20;0.20;;;3.90;99.90;;;;;;4993214;28;20778;-70
2021/12/07 05:38:33;;;;;;;0.20;0.20;;;3.90;99.90;;;;;;5013129;28;20220;-71
2021/12/07 05:40:59;;;;;;;0.97;0.97;;;3.80;99.90;;;;;;5013846;28;20247;-72
2021/12/07 05:43:25;;;;;;;0.57;0.57;;;3.80;99.90;;;;;;4999087;28;20674;-71
2021/12/07 05:45:51;;;;;;;0.10;0.10;;;3.70;99.90;;;;;;5007408;28;20211;-71
2021/12/07 05:48:16;;;;;;;16.67;1.73;;;3.70;99.90;;;;;;5013830;28;20240;-70
2021/12/07 05:50:43;;;;;;;0.10;0.10;;;3.80;99.90;;;;;;5013734;28;20183;-70
2021/12/07 05:53:11;;;;;;;5.30;2.40;;;3.80;99.90;;;;;;5013453;28;20252;-70
2021/12/07 05:55:38;;;;;;;2.63;2.27;;;3.80;99.90;;;;;;4995796;28;20623;-70
2021/12/07 05:58:04;;;;;;;0.97;0.97;;;3.80;99.90;;;;;;5021525;28;20177;-71
2021/12/07 06:00:32;;;;;;;16.40;3.90;;;3.80;99.90;;;;;;5028562;28;20189;-70
2021/12/07 06:03:04;;;;;;;0.70;0.70;;;3.70;99.90;;;;;;5013351;28;20344;-71
2021/12/07 06:05:31;;;;;;;0.63;0.63;;;3.70;99.90;;;;;;5012012;28;20681;-70
2021/12/07 06:07:57;;;;;;;0.40;0.40;;;3.70;99.90;;;;;;5011799;28;20224;-70
2021/12/07 06:10:24;;;;;;;3.03;1.37;;;3.70;99.90;;;;;;5011743;28;20174;-70
2021/12/07 06:12:49;;;;;;;1.73;1.63;;;3.70;99.90;;;;;;4994537;28;20232;-70
2021/12/07 06:15:19;;;;;;;5.73;5.10;;;3.70;99.90;;;;;;5011906;28;20182;-70
2021/12/07 06:17:45;;;;;;;0.90;0.90;;;3.60;99.90;;;;;;5011933;28;20196;-71
2021/12/07 06:20:11;;;;;;;0.57;0.57;;;3.60;99.90;;;;;;5011441;28;20185;-71
2021/12/07 06:22:37;;;;;;;1.50;1.50;;;3.60;99.90;;;;;;5011884;28;20234;-71
2021/12/07 06:25:04;;;;;;;0.20;0.20;;;3.50;99.90;;;;;;5036672;23;20228;-74
2021/12/07 06:27:30;;;;;;;1.13;1.13;;;3.50;99.90;;;;;;5010552;28;20554;-74
2021/12/07 06:29:56;;;;;;;0.40;0.40;;;3.50;99.90;;;;;;5011614;28;20176;-74
2021/12/07 06:32:22;;;;;;;0.97;0.97;;;3.50;99.90;;;;;;5011586;28;20181;-73
2021/12/07 06:34:47;;;;;;;10.73;3.20;;;3.50;99.90;;;;;;4997197;28;20206;-74
2021/12/07 06:37:13;;;;;;;0.27;0.23;;;3.50;99.90;;;;;;4993554;28;20191;-73
2021/12/07 06:39:38;;;;;;;0.40;0.40;;;3.50;99.90;;;;;;5010731;28;20181;-74
2021/12/07 06:42:04;;;;;;;3.07;2.87;;;3.60;99.90;;;;;;5011266;28;20221;-74
2021/12/07 06:44:29;;;;;;;0.90;0.73;;;3.60;99.90;;;;;;4996694;28;20685;-73
2021/12/07 06:46:55;;;;;;;0.70;0.70;;;3.60;99.90;;;;;;4974172;28;20667;-73
2021/12/07 06:49:21;;;;;;;0.63;0.63;;;3.60;99.90;;;;;;4991320;28;20678;-73
2021/12/07 06:51:48;;;;;;;0.63;0.60;;;3.50;99.90;;;;;;4991700;28;20178;-73
2021/12/07 06:54:14;;;;;;;1.10;1.03;;;3.50;99.90;;;;;;4991447;28;20295;-73
2021/12/07 06:56:40;;;;;;;0.27;0.27;;;3.50;99.90;;;;;;4991463;28;20261;-74
2021/12/07 06:59:06;;;;;;;1.70;1.60;;;3.50;99.90;;;;;;4991514;28;20594;-73
2021/12/07 07:01:32;;;;;;;0.90;0.90;;;3.50;99.90;;;;;;4991559;28;20214;-72
2021/12/07 07:03:58;;;;;;;0.00;0.00;;;3.50;99.90;;;;;;4973737;28;20201;-72
2021/12/07 07:06:24;;;;;;;1.40;1.37;;;3.40;99.90;;;;;;4991300;28;20182;-74
2021/12/07 07:08:50;;;;;;;0.20;0.20;;;3.30;99.90;;;;;;4973965;28;20208;-74
2021/12/07 07:11:17;;;;;;;11.57;1.70;;;3.30;99.90;;;;;;4991512;28;20185;-74
2021/12/07 07:13:42;;;;;;;1.53;1.40;;;3.30;99.90;;;;;;4991500;28;20208;-74
2021/12/07 07:16:08;;;;;;;0.10;0.10;;;3.30;99.90;;;;;;4991239;28;20666;-73
2021/12/07 07:18:34;;;;;;;0.40;0.40;;;3.20;99.90;;;;;;4973745;28;20205;-74
2021/12/07 07:21:00;;;;;;;0.10;0.10;;;3.10;99.90;;;;;;4991426;28;20726;-73
2021/12/07 07:23:26;;;;;;;4.13;2.10;;;3.10;99.90;;;;;;4993207;28;20264;-74
2021/12/07 07:25:55;;;;;;;0.83;0.83;;;3.10;99.90;;;;;;4995329;28;20537;-73
2021/12/07 07:28:24;;;;;;;0.23;0.23;;;3.20;99.90;;;;;;4995157;28;20193;-73
2021/12/07 07:30:50;;;;;;;0.77;0.77;;;3.20;99.90;;;;;;4977615;28;20239;-74
2021/12/07 07:33:16;;;;;;;0.10;0.10;;;3.10;99.90;;;;;;4994846;28;20193;-73
2021/12/07 07:35:41;;;;;;;0.10;0.10;;;3.10;99.90;;;;;;5004132;28;20653;-73
2021/12/07 07:38:07;;;;;;;0.20;0.20;;;3.00;99.90;;;;;;5014469;28;20272;-73
2021/12/07 07:40:32;;;;;;;0.33;0.33;;;3.00;99.90;;;;;;5014073;28;20216;-73
2021/12/07 07:42:58;;;;;;;0.50;0.50;;;3.00;99.90;;;;;;5012359;28;20183;-73
2021/12/07 07:45:24;;;;;;;0.70;0.70;;;3.00;99.90;;;;;;4994782;28;20234;-73
2021/12/07 07:47:49;;;;;;;3.93;1.87;;;3.00;99.90;;;;;;4994499;28;20181;-73
2021/12/07 07:50:15;;;;;;;3.73;1.70;;;3.00;99.90;;;;;;4995245;28;20260;-74
2021/12/07 07:52:43;;;;;;;7.23;1.43;;;3.00;99.90;;;;;;4994856;28;20197;-73
2021/12/07 07:55:10;;;;;;;0.00;0.00;;;3.00;99.90;;;;;;4995038;28;20697;-73
2021/12/07 07:57:35;;;;;;;0.77;0.77;;;3.00;99.90;;;;;;4994323;28;20182;-73
2021/12/07 08:00:08;;;;;;;0.70;0.70;;;3.00;99.90;;;;;;4994861;28;20243;-73
2021/12/07 08:02:34;;;;;;;0.20;0.20;;;3.00;99.90;;;;;;5000111;28;20209;-73
2021/12/07 08:04:59;;;;;;;0.83;0.83;;;3.00;99.90;;;;;;5014116;28;20196;-75
2021/12/07 08:07:25;;;;;;;0.30;0.30;;;3.10;99.90;;;;;;4995860;28;20199;-75
2021/12/07 08:09:50;;;;;;;0.13;0.13;;;3.10;99.90;;;;;;5014159;28;20272;-78
2021/12/07 08:12:16;;;;;;;0.73;0.73;;;3.10;99.90;;;;;;5011887;28;20225;-75
2021/12/07 08:14:42;;;;;;;0.57;0.57;;;3.10;99.90;;;;;;4994415;28;20205;-75
2021/12/07 08:17:07;;;;;;;1.50;1.43;;;3.20;99.90;;;;;;4994110;28;20272;-73
2021/12/07 08:19:33;;;;;;;4.13;1.23;;;3.20;99.90;;;;;;4994466;28;20195;-74
2021/12/07 08:21:59;;;;;;;6.27;3.47;;;3.20;99.90;;;;;;4994188;28;20205;-73
2021/12/07 08:24:24;;;;;;;0.37;0.37;;;3.30;99.90;;;;;;4994014;28;20218;-73
2021/12/07 08:26:50;;;;;;;0.40;0.40;;;3.30;99.90;;;;;;4976297;28;20178;-73
2021/12/07 08:29:15;;;;;;;0.43;0.43;;;3.30;99.90;;;;;;4976665;28;20200;-73
2021/12/07 08:31:43;;;;;;;3.60;3.40;;;3.40;99.90;;;;;;4993967;28;20558;-73
2021/12/07 08:34:08;;;;;;;0.33;0.33;;;3.40;99.90;;;;;;4993972;28;20205;-73
2021/12/07 08:36:34;;;;;;;6.90;2.47;;;3.50;99.90;;;;;;4992199;28;20197;-73
2021/12/07 08:39:00;;;;;;;1.13;1.13;;;3.50;99.90;;;;;;5012766;28;20264;-73
2021/12/07 08:41:26;;;;;;;0.20;0.20;;;3.50;99.90;;;;;;5013239;28;20330;-73
2021/12/07 08:43:51;;;;;;;1.43;1.33;;;3.60;99.90;;;;;;5004017;28;20206;-73
2021/12/07 08:46:17;;;;;;;0.10;0.10;;;3.60;99.90;;;;;;4993326;28;20190;-73
2021/12/07 08:48:43;;;;;;;1.10;1.03;;;3.70;99.90;;;;;;4993782;28;20236;-74
2021/12/07 08:51:11;;;;;;;2.00;1.90;;;3.70;99.90;;;;;;4976407;28;20178;-73
2021/12/07 08:53:44;;;;;;;1.90;1.80;;;3.80;99.90;;;;;;4993269;28;20213;-74
2021/12/07 09:01:38;;;;;;;0.53;0.53;;;3.90;99.90;;;;;;4993376;28;20213;-74
2021/12/07 09:04:05;;;;;;;0.77;0.77;;;4.00;99.90;;;;;;4993254;28;20206;-74
2021/12/07 09:06:31;;;;;;;0.00;0.00;;;4.00;99.90;;;;;;4993125;28;20253;-74
2021/12/07 09:08:58;;;;;;;0.70;0.70;;;4.10;99.90;;;;;;4993411;28;20217;-74
2021/12/07 09:11:24;;;;;;;0.30;0.30;;;4.10;99.90;;;;;;4993390;28;20240;-75
2021/12/07 09:13:50;;;;;;;0.33;0.33;;;4.10;99.90;;;;;;4993138;28;20207;-73
2021/12/07 09:16:18;;;;;;;3.40;1.03;;;4.20;99.90;;;;;;4992940;28;20186;-74
2021/12/07 09:18:44;;;;;;;1.77;1.67;;;4.20;99.90;;;;;;4992908;28;20730;-73
2021/12/07 09:21:10;;;;;;;2.03;1.77;;;4.30;99.90;;;;;;4993357;28;20245;-74
2021/12/07 09:23:36;;;;;;;0.63;0.63;;;4.40;99.90;;;;;;4992882;28;20657;-74
2021/12/07 09:26:03;;;;;;;0.17;0.17;;;4.40;99.90;;;;;;4975545;28;20278;-73
2021/12/07 09:28:28;;;;;;;1.50;1.50;;;4.40;99.90;;;;;;4992874;28;20190;-73
2021/12/07 09:30:54;;;;;;;2.73;0.90;;;4.50;99.90;;;;;;4992994;28;20175;-74
2021/12/07 09:33:24;;;;;;;3.30;1.70;;;4.60;99.90;;;;;;4992745;28;20221;-74
2021/12/07 09:35:51;;;;;;;0.27;0.27;;;4.70;99.90;;;;;;5002962;28;20655;-72
2021/12/07 09:38:17;;;;;;;2.10;1.30;;;4.80;99.90;;;;;;5012266;28;20174;-73
2021/12/07 09:40:44;;;;;;;0.60;0.60;;;4.90;99.90;;;;;;5011766;28;20190;-74
2021/12/07 09:43:10;;;;;;;0.30;0.30;;;4.90;99.90;;;;;;5000227;28;20387;-74
2021/12/07 09:45:36;;;;;;;0.33;0.33;;;5.00;99.90;;;;;;4991968;28;20179;-74
2021/12/07 09:48:05;;;;;;;1.03;1.03;;;5.00;99.90;;;;;;4992327;28;20298;-73
2021/12/07 09:50:34;;;;;;;1.17;1.17;;;5.00;99.90;;;;;;4975092;28;20214;-73
2021/12/07 09:53:00;;;;;;;0.97;0.97;;;5.00;99.90;;;;;;4992488;28;20199;-74
2021/12/07 09:55:28;;;;;;;0.63;0.63;;;5.00;99.90;;;;;;4992509;28;20178;-73
2021/12/07 09:57:54;;;;;;;0.10;0.10;;;5.00;99.90;;;;;;4974627;28;20185;-71
2021/12/07 10:00:22;;;;;;;0.97;0.63;;;5.10;99.90;;;;;;4991480;28;20652;-72
2021/12/07 10:02:50;;;;;;;0.60;0.60;;;5.20;99.90;;;;;;4992127;28;20213;-72
2021/12/07 10:05:19;;;;;;;0.80;0.80;;;5.30;99.90;;;;;;4992103;28;20203;-72
2021/12/07 10:07:46;;;;;;;5.17;0.97;;;5.40;99.90;;;;;;4991877;28;20182;-72
2021/12/07 10:10:25;;;;;;;0.50;0.50;;;5.60;99.90;;;;;;4991915;28;20611;-71
2021/12/07 10:12:52;;;;;;;1.43;1.37;;;5.60;99.90;;;;;;4992340;28;20739;-72
2021/12/07 10:15:18;;;;;;;0.20;0.20;;;5.70;99.90;;;;;;4992033;28;20222;-72
2021/12/07 10:18:06;;;;;;;4.23;0.83;;;5.90;99.90;;;;;;4991926;28;20273;-72
2021/12/07 10:20:41;;;;;;;0.00;0.00;;;6.10;99.90;;;;;;4991863;28;20656;-72
2021/12/07 10:23:16;;;;;;;0.47;0.47;;;6.30;99.90;;;;;;4991925;28;20592;-71
2021/12/07 10:25:54;;;;;;;0.47;0.47;;;6.40;99.90;;;;;;4992038;28;20582;-72
2021/12/07 10:28:36;;;;;;;4.13;1.70;;;6.50;99.90;;;;;;4991900;28;20178;-71
2021/12/07 10:31:15;;;;;;;2.30;1.60;;;6.60;99.90;;;;;;4992107;28;20540;-72
2021/12/07 10:33:48;;;;;;;0.27;0.27;;;6.70;99.90;;;;;;4974525;28;20210;-72
2021/12/07 10:36:20;;;;;;;0.83;0.83;;;6.60;99.90;;;;;;4987394;28;20182;-72
2021/12/07 10:38:49;;;;;;;0.23;0.23;;;6.60;99.90;;;;;;5011357;28;20186;-71
2021/12/07 10:41:21;;;;;;;0.10;0.10;;;6.70;99.90;;;;;;5010779;28;20691;-72
2021/12/07 10:43:59;;;;;;;6.80;1.50;;;6.90;99.90;;;;;;5002501;28;20207;-72
2021/12/07 10:46:38;;;;;;;0.53;0.53;;;7.20;99.90;;;;;;4991468;28;20265;-72
2021/12/07 10:49:08;;;;;;;0.37;0.37;;;7.40;99.90;;;;;;4974365;28;20266;-71
2021/12/07 10:51:33;;;;;;;0.10;0.10;;;7.90;99.90;;;;;;4991540;28;20179;-75
2021/12/07 10:53:59;;;;;;;0.10;0.10;;;8.10;99.90;;;;;;4991760;28;20560;-72
2021/12/07 10:56:33;;;;;;;0.20;0.20;;;8.20;99.90;;;;;;4973931;28;20187;-71
2021/12/07 10:59:00;;;;;;;0.80;0.73;;;8.50;99.90;;;;;;4994558;28;20191;-72
2021/12/07 11:01:42;;;;;;;0.40;0.40;;;8.40;99.90;;;;;;4995729;28;20201;-72
2021/12/07 11:04:26;;;;;;;0.10;0.10;;;8.20;99.90;;;;;;4977989;28;20210;-71
2021/12/07 11:07:10;;;;;;;0.40;0.30;;;8.50;99.90;;;;;;4977519;28;20838;-70
2021/12/07 11:09:44;;;;;;;1.70;1.07;;;8.50;99.90;;;;;;4978031;28;20183;-71
2021/12/07 11:12:12;;;;;;;5.33;1.37;;;8.80;99.90;;;;;;4977864;28;20186;-71
2021/12/07 11:14:39;;;;;;;0.10;0.10;;;9.10;99.90;;;;;;4995376;28;20205;-72
2021/12/07 11:17:07;;;;;;;1.03;0.93;;;9.20;99.90;;;;;;4995247;28;20190;-70
2021/12/07 11:19:34;;;;;;;0.10;0.10;;;9.20;99.90;;;;;;4995485;28;20258;-72
2021/12/07 11:22:00;;;;;;;0.93;0.93;;;9.50;99.90;;;;;;4995380;28;20716;-72
2021/12/07 11:24:45;;;;;;;0.10;0.10;;;9.80;99.90;;;;;;4995204;28;20289;-72
2021/12/07 11:30:10;;;;;;;0.27;0.27;;;10.20;99.90;;;;;;4995457;28;20186;-73
2021/12/07 11:32:36;;;;;;;0.10;0.10;;;9.50;99.90;;;;;;4995441;28;20190;-72
2021/12/07 11:35:24;;;;;;;0.60;0.30;;;8.00;99.90;;;;;;4998977;28;20225;-72
2021/12/07 11:37:50;;;;;;;0.37;0.37;;;7.40;99.90;;;;;;5013863;28;20178;-72
2021/12/07 11:40:23;;;;;;;0.50;0.50;;;7.10;99.90;;;;;;5014112;28;20179;-74
2021/12/07 11:42:48;;;;;;;1.10;1.10;;;6.90;99.90;;;;;;5013718;28;20198;-73
2021/12/07 11:45:17;;;;;;;0.67;0.67;;;6.80;99.90;;;;;;4994710;28;20614;-73
2021/12/07 11:47:56;;;;;;;0.10;0.10;;;6.70;99.90;;;;;;4994513;28;20653;-74
2021/12/07 11:50:38;;;;;;;0.00;0.00;;;6.60;99.90;;;;;;4994893;28;20233;-72
2021/12/07 11:53:14;;;;;;;0.10;0.10;;;6.60;99.90;;;;;;4977151;28;20183;-70
2021/12/07 11:55:43;;;;;;;0.10;0.10;;;6.60;99.90;;;;;;4994460;28;20229;-71
2021/12/07 11:58:10;;;;;;;0.20;0.20;;;6.50;99.90;;;;;;4994504;28;20175;-72
2021/12/07 12:00:40;;;;;;;0.10;0.10;;;6.60;99.90;;;;;;4994708;28;20175;-72
2021/12/07 12:03:08;;;;;;;0.40;0.40;;;6.80;99.90;;;;;;4996484;28;20568;-72
2021/12/07 12:05:39;;;;;;;0.10;0.10;;;7.10;99.90;;;;;;4995968;28;20601;-72
2021/12/07 12:08:08;;;;;;;0.10;0.10;;;7.50;99.90;;;;;;4994186;28;20661;-72
2021/12/07 12:10:40;;;;;;;0.10;0.10;;;9.40;99.90;;;;;;4994640;28;20262;-73
2021/12/07 12:13:27;;;;;;;0.83;0.30;;;11.20;99.90;;;;;;4976900;28;20619;-72
2021/12/07 12:16:02;;;;;;;0.10;0.10;;;10.50;99.90;;;;;;4976737;28;20187;-71
2021/12/07 12:18:36;;;;;;;0.30;0.30;;;10.00;99.90;;;;;;4994686;28;20210;-71
2021/12/07 12:21:31;;;;;;;0.03;0.03;;;9.30;99.90;;;;;;4994512;28;20274;-71
2021/12/07 12:24:21;;;;;;;0.23;0.23;;;8.90;99.90;;;;;;4976853;28;20703;-70
2021/12/07 12:26:47;;;;;;;0.00;0.00;;;9.10;99.90;;;;;;4993802;28;20199;-71
2021/12/07 12:29:23;;;;;;;0.10;0.10;;;8.80;99.90;;;;;;4994540;28;20241;-72
2021/12/07 12:31:55;;;;;;;0.10;0.10;;;7.90;99.90;;;;;;4994324;28;20225;-72
2021/12/07 12:34:30;;;;;;;0.43;0.43;;;7.50;99.90;;;;;;4993881;28;20223;-73
2021/12/07 12:37:07;;;;;;;0.10;0.10;;;7.20;99.90;;;;;;5013328;28;20178;-72
2021/12/07 12:39:45;;;;;;;0.10;0.10;;;7.30;99.90;;;;;;5012776;28;20182;-73
2021/12/07 12:42:26;;;;;;;0.10;0.10;;;7.50;99.90;;;;;;5013409;28;20206;-72
2021/12/07 12:44:58;;;;;;;0.10;0.10;;;8.00;99.90;;;;;;4996297;28;20282;-72
2021/12/07 12:47:26;;;;;;;1.20;1.13;;;8.10;99.90;;;;;;4993492;28;20179;-73
2021/12/07 12:49:51;;;;;;;0.20;0.20;;;7.90;99.90;;;;;;4993899;28;20194;-73
2021/12/07 12:52:40;;;;;;;5.20;0.43;;;8.20;99.90;;;;;;4993683;28;20187;-71
2021/12/07 12:55:24;;;;;;;0.60;0.60;;;8.40;99.90;;;;;;4993699;28;20241;-73
2021/12/07 12:57:51;;;;;;;0.10;0.10;;;8.70;99.90;;;;;;4975826;28;20561;-73
2021/12/07 13:00:16;;;;;;;0.10;0.10;;;9.10;99.90;;;;;;4993472;28;20183;-72
2021/12/07 13:02:49;;;;;;;3.77;1.33;;;8.90;99.90;;;;;;4993375;28;20211;-71
2021/12/07 13:05:16;;;;;;;0.00;0.00;;;8.70;99.90;;;;;;4993275;28;20203;-72
2021/12/07 13:07:42;;;;;;;2.20;1.07;;;8.80;99.90;;;;;;4993007;28;20191;-72
2021/12/07 13:10:08;;;;;;;0.20;0.20;;;8.60;99.90;;;;;;4993299;28;20317;-72
2021/12/07 13:12:38;;;;;;;0.27;0.27;;;8.90;99.90;;;;;;4975650;28;20187;-72
2021/12/07 13:15:07;;;;;;;0.10;0.10;;;8.90;99.90;;;;;;4993503;28;20199;-73
2021/12/07 13:17:45;;;;;;;0.30;0.20;;;9.10;99.90;;;;;;4993027;28;20182;-72
2021/12/07 13:20:29;;;;;;;2.00;1.90;;;8.40;99.90;;;;;;4992286;28;20187;-72
2021/12/07 13:23:06;;;;;;;0.63;0.63;;;8.30;99.90;;;;;;4996959;28;20555;-72
2021/12/07 13:25:48;;;;;;;0.27;0.27;;;7.90;99.90;;;;;;5005969;28;20175;-72
2021/12/07 13:28:25;;;;;;;0.10;0.10;;;7.70;99.90;;;;;;4999994;28;20178;-72
2021/12/07 13:30:53;;;;;;;0.23;0.23;;;7.70;99.90;;;;;;4997584;28;20258;-72
2021/12/07 13:33:38;;;;;;;0.10;0.10;;;7.60;99.90;;;;;;4994520;28;20181;-72
2021/12/07 13:36:32;;;;;;;0.63;0.53;;;7.50;99.90;;;;;;5012047;28;20415;-72
2021/12/07 13:39:07;;;;;;;0.43;0.43;;;7.40;99.90;;;;;;5002538;28;20206;-72
2021/12/07 13:41:32;;;;;;;0.10;0.10;;;7.20;99.90;;;;;;5011889;28;20258;-72
2021/12/07 13:43:58;;;;;;;0.10;0.10;;;7.00;99.90;;;;;;5001675;28;20199;-72
2021/12/07 13:46:26;;;;;;;0.03;0.03;;;6.90;99.90;;;;;;4992209;28;20179;-72
2021/12/07 13:49:04;;;;;;;0.10;0.10;;;6.80;99.90;;;;;;4992330;28;20187;-72
2021/12/07 13:51:30;;;;;;;0.90;0.87;;;6.60;99.90;;;;;;4992309;28;20273;-72
2021/12/07 13:53:55;;;;;;;0.43;0.43;;;6.50;99.90;;;;;;5002457;28;20274;-72
2021/12/07 13:56:21;;;;;;;18.03;0.67;;;6.10;99.90;;;;;;5009091;28;20178;-72
2021/12/07 13:59:12;;;;;;;0.47;0.47;;;5.90;99.90;;;;;;5012052;28;20185;-72
2021/12/07 14:01:40;;;;;;;0.00;0.00;;;5.80;99.90;;;;;;5002929;28;20202;-72
2021/12/07 14:04:07;;;;;;;0.10;0.10;;;5.70;99.90;;;;;;4992033;28;20642;-72
2021/12/07 14:06:34;;;;;;;0.40;0.40;;;5.60;99.90;;;;;;4992303;28;20282;-72
2021/12/07 14:09:10;;;;;;;2.30;0.37;;;5.50;99.90;;;;;;4992141;28;20178;-72
2021/12/07 14:11:37;;;;;;;0.10;0.10;;;5.40;99.90;;;;;;4992430;28;20240;-72
2021/12/07 14:14:11;;;;;;;0.10;0.10;;;5.30;99.90;;;;;;4974650;28;20205;-72
2021/12/07 14:16:37;;;;;;;0.10;0.10;;;5.20;99.90;;;;;;4991834;28;20187;-72
2021/12/07 14:19:03;;;;;;;0.10;0.10;;;5.20;99.90;;;;;;4991958;28;20240;-72
2021/12/07 14:21:30;;;;;;;3.10;2.00;;;5.10;99.90;;;;;;4992024;28;20218;-72
2021/12/07 14:24:04;;;;;;;0.30;0.30;;;5.00;99.90;;;;;;4991985;28;20214;-72
2021/12/07 14:26:31;;;;;;;1.13;0.40;;;5.00;99.90;;;;;;4991732;28;20275;-72
2021/12/07 14:29:03;;;;;;;0.47;0.47;;;5.00;99.90;;;;;;4991863;28;20229;-72
2021/12/07 14:31:51;;;;;;;0.73;0.67;;;4.90;99.90;;;;;;4991990;28;20186;-72
2021/12/07 14:34:23;;;;;;;0.10;0.10;;;4.90;99.90;;;;;;4992047;28;20207;-72
2021/12/07 14:36:55;;;;;;;1.70;0.60;;;4.80;99.90;;;;;;5009737;28;20187;-72
2021/12/07 14:39:27;;;;;;;0.10;0.10;;;4.80;99.90;;;;;;5011010;28;20340;-71
2021/12/07 14:42:05;;;;;;;0.10;0.10;;;4.70;99.90;;;;;;5011433;28;20650;-72
2021/12/07 14:44:36;;;;;;;0.10;0.10;;;4.60;99.90;;;;;;4984095;28;20311;-72
2021/12/07 14:47:05;;;;;;;0.40;0.40;;;4.60;99.90;;;;;;4991555;28;20186;-72
2021/12/07 14:49:35;;;;;;;0.30;0.30;;;4.60;99.90;;;;;;4991532;28;20670;-72
2021/12/07 14:52:01;;;;;;;0.43;0.43;;;4.60;99.90;;;;;;4991602;28;20185;-72